Okhotsk, Russia
Current Conditions -  °F | °C
As of 2:30 PM on Friday 21 Nov 2014 (Local Time) from UHMM Reporting Station
Few Clouds Few Clouds  
Wind Chill:   Ceiling: Unl
Heat Index:   Visibility: 6mi
Dew Point:   Wind: 0mph
Humidity: 67%   Direction: NA
Pressure: 29.88"   Gusts: NA
Location:  59.38°N, 143.3°E
Report Text: UHMM 210430Z 00000MPS 9999 FEW100 M13/M18 Q1012 NOSIG RMKQFE744 88950550
Loading
Personal Weather Stations






























Interactive Weather Map New forecast layout! Learn more

10-Day Weather Forecast

Advertisements
Track Severe Weather on mobile